sensor_id;sensor_type;location;lat;lon;timestamp;temperature;humidity
7684;DHT22;3884;48.616;12.872;2022-10-20T00:01:19;8.90;99.90
7684;DHT22;3884;48.616;12.872;2022-10-20T00:03:47;8.90;99.90
7684;DHT22;3884;48.616;12.872;2022-10-20T00:06:18;8.80;99.90
7684;DHT22;3884;48.616;12.872;2022-10-20T00:08:45;8.80;99.90
7684;DHT22;3884;48.616;12.872;2022-10-20T00:11:15;8.80;99.90
7684;DHT22;3884;48.616;12.872;2022-10-20T00:13:45;8.80;99.90
7684;DHT22;3884;48.616;12.872;2022-10-20T00:16:13;8.80;99.90
7684;DHT22;3884;48.616;12.872;2022-10-20T00:18:41;8.70;99.90
7684;DHT22;3884;48.616;12.872;2022-10-20T00:21:11;8.70;99.90
7684;DHT22;3884;48.616;12.872;2022-10-20T00:23:39;8.70;99.90
7684;DHT22;3884;48.616;12.872;2022-10-20T00:26:09;8.70;99.90
7684;DHT22;3884;48.616;12.872;2022-10-20T00:28:36;8.60;99.90
7684;DHT22;3884;48.616;12.872;2022-10-20T00:31:04;8.60;99.90
7684;DHT22;3884;48.616;12.872;2022-10-20T00:33:33;8.70;99.90
7684;DHT22;3884;48.616;12.872;2022-10-20T00:36:02;8.60;99.90
7684;DHT22;3884;48.616;12.872;2022-10-20T00:38:29;8.50;99.90
7684;DHT22;3884;48.616;12.872;2022-10-20T00:40:56;8.40;99.90
7684;DHT22;3884;48.616;12.872;2022-10-20T00:43:40;8.40;99.90
7684;DHT22;3884;48.616;12.872;2022-10-20T00:46:07;8.40;99.90
7684;DHT22;3884;48.616;12.872;2022-10-20T00:48:38;8.30;99.90
7684;DHT22;3884;48.616;12.872;2022-10-20T00:51:06;8.30;99.90
7684;DHT22;3884;48.616;12.872;2022-10-20T00:53:33;8.20;99.90
7684;DHT22;3884;48.616;12.872;2022-10-20T00:56:01;8.20;99.90
7684;DHT22;3884;48.616;12.872;2022-10-20T00:58:28;8.20;99.90
7684;DHT22;3884;48.616;12.872;2022-10-20T01:00:57;8.20;99.90
7684;DHT22;3884;48.616;12.872;2022-10-20T01:03:28;8.20;99.90
7684;DHT22;3884;48.616;12.872;2022-10-20T01:05:58;8.20;99.90
7684;DHT22;3884;48.616;12.872;2022-10-20T01:08:25;8.20;99.90
7684;DHT22;3884;48.616;12.872;2022-10-20T01:11:00;8.20;99.90
7684;DHT22;3884;48.616;12.872;2022-10-20T01:13:36;8.20;99.90
7684;DHT22;3884;48.616;12.872;2022-10-20T01:16:11;8.10;99.90
7684;DHT22;3884;48.616;12.872;2022-10-20T01:18:48;8.10;99.90
7684;DHT22;3884;48.616;12.872;2022-10-20T01:21:41;8.00;99.90
7684;DHT22;3884;48.616;12.872;2022-10-20T01:24:41;7.90;99.90
7684;DHT22;3884;48.616;12.872;2022-10-20T01:27:34;7.90;99.90
7684;DHT22;3884;48.616;12.872;2022-10-20T01:30:09;7.80;99.90
7684;DHT22;3884;48.616;12.872;2022-10-20T01:32:59;7.80;99.90
7684;DHT22;3884;48.616;12.872;2022-10-20T01:35:36;7.80;99.90
7684;DHT22;3884;48.616;12.872;2022-10-20T01:38:12;7.80;99.90
7684;DHT22;3884;48.616;12.872;2022-10-20T01:40:45;7.70;99.90
7684;DHT22;3884;48.616;12.872;2022-10-20T01:43:18;7.80;99.90
7684;DHT22;3884;48.616;12.872;2022-10-20T01:45:47;7.70;99.90
7684;DHT22;3884;48.616;12.872;2022-10-20T01:48:18;7.60;99.90
7684;DHT22;3884;48.616;12.872;2022-10-20T01:50:48;7.60;99.90
7684;DHT22;3884;48.616;12.872;2022-10-20T01:53:16;7.60;99.90
7684;DHT22;3884;48.616;12.872;2022-10-20T01:55:43;7.60;99.90
7684;DHT22;3884;48.616;12.872;2022-10-20T01:58:43;7.50;99.90
7684;DHT22;3884;48.616;12.872;2022-10-20T02:01:21;7.50;99.90
7684;DHT22;3884;48.616;12.872;2022-10-20T02:03:55;7.50;99.90
7684;DHT22;3884;48.616;12.872;2022-10-20T02:06:32;7.50;99.90
7684;DHT22;3884;48.616;12.872;2022-10-20T02:09:03;7.50;99.90
7684;DHT22;3884;48.616;12.872;2022-10-20T02:11:40;7.50;99.90
7684;DHT22;3884;48.616;12.872;2022-10-20T02:14:14;7.40;99.90
7684;DHT22;3884;48.616;12.872;2022-10-20T02:16:46;7.40;99.90
7684;DHT22;3884;48.616;12.872;2022-10-20T02:19:16;7.40;99.90
7684;DHT22;3884;48.616;12.872;2022-10-20T02:21:45;7.30;99.90
7684;DHT22;3884;48.616;12.872;2022-10-20T02:24:15;7.30;99.90
7684;DHT22;3884;48.616;12.872;2022-10-20T02:26:44;7.30;99.90
7684;DHT22;3884;48.616;12.872;2022-10-20T02:29:14;7.30;99.90
7684;DHT22;3884;48.616;12.872;2022-10-20T02:31:45;7.30;99.90
7684;DHT22;3884;48.616;12.872;2022-10-20T02:34:13;7.30;99.90
7684;DHT22;3884;48.616;12.872;2022-10-20T02:36:42;7.20;99.90
7684;DHT22;3884;48.616;12.872;2022-10-20T02:39:10;7.20;99.90
7684;DHT22;3884;48.616;12.872;2022-10-20T02:41:37;7.20;99.90
7684;DHT22;3884;48.616;12.872;2022-10-20T02:44:04;7.20;99.90
7684;DHT22;3884;48.616;12.872;2022-10-20T02:46:33;7.20;99.90
7684;DHT22;3884;48.616;12.872;2022-10-20T02:49:00;7.20;99.90
7684;DHT22;3884;48.616;12.872;2022-10-20T02:51:27;7.20;99.90
7684;DHT22;3884;48.616;12.872;2022-10-20T02:53:54;7.20;99.90
7684;DHT22;3884;48.616;12.872;2022-10-20T02:56:21;7.10;99.90
7684;DHT22;3884;48.616;12.872;2022-10-20T02:58:48;7.00;99.90
7684;DHT22;3884;48.616;12.872;2022-10-20T03:01:15;7.00;99.90
7684;DHT22;3884;48.616;12.872;2022-10-20T03:03:44;7.00;99.90
7684;DHT22;3884;48.616;12.872;2022-10-20T03:06:12;7.00;99.90
7684;DHT22;3884;48.616;12.872;2022-10-20T03:08:40;6.90;99.90
7684;DHT22;3884;48.616;12.872;2022-10-20T03:11:08;6.90;99.90
7684;DHT22;3884;48.616;12.872;2022-10-20T03:13:35;6.90;99.90
7684;DHT22;3884;48.616;12.872;2022-10-20T03:16:02;6.80;99.90
7684;DHT22;3884;48.616;12.872;2022-10-20T03:18:29;6.80;99.90
7684;DHT22;3884;48.616;12.872;2022-10-20T03:20:58;6.70;99.90
7684;DHT22;3884;48.616;12.872;2022-10-20T03:23:25;6.80;99.90
7684;DHT22;3884;48.616;12.872;2022-10-20T03:25:52;6.70;99.90
7684;DHT22;3884;48.616;12.872;2022-10-20T03:28:19;6.80;99.90
7684;DHT22;3884;48.616;12.872;2022-10-20T03:30:46;6.80;99.90
7684;DHT22;3884;48.616;12.872;2022-10-20T03:33:13;6.80;99.90
7684;DHT22;3884;48.616;12.872;2022-10-20T03:35:40;6.80;99.90
7684;DHT22;3884;48.616;12.872;2022-10-20T03:38:08;6.80;99.90
7684;DHT22;3884;48.616;12.872;2022-10-20T03:40:35;6.80;99.90
7684;DHT22;3884;48.616;12.872;2022-10-20T03:43:02;6.80;99.90
7684;DHT22;3884;48.616;12.872;2022-10-20T03:45:29;6.80;99.90
7684;DHT22;3884;48.616;12.872;2022-10-20T03:47:56;6.80;99.90
7684;DHT22;3884;48.616;12.872;2022-10-20T03:50:23;6.80;99.90
7684;DHT22;3884;48.616;12.872;2022-10-20T03:52:51;6.80;99.90
7684;DHT22;3884;48.616;12.872;2022-10-20T03:55:19;6.80;99.90
7684;DHT22;3884;48.616;12.872;2022-10-20T03:57:46;6.80;99.90
7684;DHT22;3884;48.616;12.872;2022-10-20T04:00:13;6.90;99.90
7684;DHT22;3884;48.616;12.872;2022-10-20T04:02:42;7.00;99.90
7684;DHT22;3884;48.616;12.872;2022-10-20T04:05:11;7.00;99.90
7684;DHT22;3884;48.616;12.872;2022-10-20T04:07:38;7.00;99.90
7684;DHT22;3884;48.616;12.872;2022-10-20T04:10:06;7.00;99.90
7684;DHT22;3884;48.616;12.872;2022-10-20T04:12:34;6.90;99.90
7684;DHT22;3884;48.616;12.872;2022-10-20T04:15:02;7.00;99.90
7684;DHT22;3884;48.616;12.872;2022-10-20T04:17:29;6.90;99.90
7684;DHT22;3884;48.616;12.872;2022-10-20T04:19:56;7.00;99.90
7684;DHT22;3884;48.616;12.872;2022-10-20T04:22:23;7.00;99.90
7684;DHT22;3884;48.616;12.872;2022-10-20T04:24:50;6.90;99.90
7684;DHT22;3884;48.616;12.872;2022-10-20T04:27:17;6.90;99.90
7684;DHT22;3884;48.616;12.872;2022-10-20T04:29:47;6.90;99.90
7684;DHT22;3884;48.616;12.872;2022-10-20T04:32:14;6.80;99.90
7684;DHT22;3884;48.616;12.872;2022-10-20T04:34:41;6.80;99.90
7684;DHT22;3884;48.616;12.872;2022-10-20T04:37:08;6.80;99.90
7684;DHT22;3884;48.616;12.872;2022-10-20T04:39:35;6.80;99.90
7684;DHT22;3884;48.616;12.872;2022-10-20T04:42:02;6.70;99.90
7684;DHT22;3884;48.616;12.872;2022-10-20T04:44:29;6.70;99.90
7684;DHT22;3884;48.616;12.872;2022-10-20T04:46:57;6.70;99.90
7684;DHT22;3884;48.616;12.872;2022-10-20T04:49:25;6.70;99.90
7684;DHT22;3884;48.616;12.872;2022-10-20T04:51:52;6.70;99.90
7684;DHT22;3884;48.616;12.872;2022-10-20T04:54:19;6.70;99.90
7684;DHT22;3884;48.616;12.872;2022-10-20T04:56:46;6.70;99.90
7684;DHT22;3884;48.616;12.872;2022-10-20T04:59:13;6.70;99.90
7684;DHT22;3884;48.616;12.872;2022-10-20T05:01:40;6.70;99.90
7684;DHT22;3884;48.616;12.872;2022-10-20T05:04:09;6.70;99.90
7684;DHT22;3884;48.616;12.872;2022-10-20T05:06:36;6.60;99.90
7684;DHT22;3884;48.616;12.872;2022-10-20T05:09:05;6.60;99.90
7684;DHT22;3884;48.616;12.872;2022-10-20T05:11:34;6.70;99.90
7684;DHT22;3884;48.616;12.872;2022-10-20T05:14:02;6.70;99.90
7684;DHT22;3884;48.616;12.872;2022-10-20T05:16:29;6.70;99.90
7684;DHT22;3884;48.616;12.872;2022-10-20T05:18:56;6.70;99.90
7684;DHT22;3884;48.616;12.872;2022-10-20T05:21:26;6.60;99.90
7684;DHT22;3884;48.616;12.872;2022-10-20T05:23:54;6.60;99.90
7684;DHT22;3884;48.616;12.872;2022-10-20T05:26:22;6.60;99.90
7684;DHT22;3884;48.616;12.872;2022-10-20T05:28:50;6.60;99.90
7684;DHT22;3884;48.616;12.872;2022-10-20T05:31:19;6.60;99.90
7684;DHT22;3884;48.616;12.872;2022-10-20T05:33:48;6.50;99.90
7684;DHT22;3884;48.616;12.872;2022-10-20T05:36:17;6.60;99.90
7684;DHT22;3884;48.616;12.872;2022-10-20T05:38:46;6.50;99.90
7684;DHT22;3884;48.616;12.872;2022-10-20T05:41:15;6.50;99.90
7684;DHT22;3884;48.616;12.872;2022-10-20T05:43:45;6.40;99.90
7684;DHT22;3884;48.616;12.872;2022-10-20T05:46:13;6.40;99.90
7684;DHT22;3884;48.616;12.872;2022-10-20T05:48:40;6.50;99.90
7684;DHT22;3884;48.616;12.872;2022-10-20T05:51:08;6.50;99.90
7684;DHT22;3884;48.616;12.872;2022-10-20T05:53:35;6.50;99.90
7684;DHT22;3884;48.616;12.872;2022-10-20T05:56:06;6.50;99.90
7684;DHT22;3884;48.616;12.872;2022-10-20T05:58:33;6.60;99.90
7684;DHT22;3884;48.616;12.872;2022-10-20T06:01:05;6.50;99.90
7684;DHT22;3884;48.616;12.872;2022-10-20T06:03:32;6.50;99.90
7684;DHT22;3884;48.616;12.872;2022-10-20T06:05:59;6.50;99.90
7684;DHT22;3884;48.616;12.872;2022-10-20T06:08:28;6.50;99.90
7684;DHT22;3884;48.616;12.872;2022-10-20T06:10:56;6.60;99.90
7684;DHT22;3884;48.616;12.872;2022-10-20T06:13:29;6.60;99.90
7684;DHT22;3884;48.616;12.872;2022-10-20T06:16:00;6.60;99.90
7684;DHT22;3884;48.616;12.872;2022-10-20T06:18:27;6.70;99.90
7684;DHT22;3884;48.616;12.872;2022-10-20T06:20:59;6.70;99.90
7684;DHT22;3884;48.616;12.872;2022-10-20T06:23:26;6.80;99.90
7684;DHT22;3884;48.616;12.872;2022-10-20T06:25:53;6.80;99.90
7684;DHT22;3884;48.616;12.872;2022-10-20T06:28:20;6.90;99.90
7684;DHT22;3884;48.616;12.872;2022-10-20T06:30:48;7.00;99.90
7684;DHT22;3884;48.616;12.872;2022-10-20T06:33:15;7.00;99.90
7684;DHT22;3884;48.616;12.872;2022-10-20T06:35:43;7.10;99.90
7684;DHT22;3884;48.616;12.872;2022-10-20T06:38:10;7.10;99.90
7684;DHT22;3884;48.616;12.872;2022-10-20T06:40:37;7.10;99.90
7684;DHT22;3884;48.616;12.872;2022-10-20T06:43:04;7.10;99.90
7684;DHT22;3884;48.616;12.872;2022-10-20T06:45:31;7.10;99.90
7684;DHT22;3884;48.616;12.872;2022-10-20T06:47:59;7.20;99.90
7684;DHT22;3884;48.616;12.872;2022-10-20T06:50:26;7.30;99.90
7684;DHT22;3884;48.616;12.872;2022-10-20T06:52:53;7.30;99.90
7684;DHT22;3884;48.616;12.872;2022-10-20T06:55:21;7.40;99.90
7684;DHT22;3884;48.616;12.872;2022-10-20T06:57:48;7.40;99.90
7684;DHT22;3884;48.616;12.872;2022-10-20T07:00:15;7.50;99.90
7684;DHT22;3884;48.616;12.872;2022-10-20T07:02:42;7.50;99.90
7684;DHT22;3884;48.616;12.872;2022-10-20T07:05:10;7.60;99.90
7684;DHT22;3884;48.616;12.872;2022-10-20T07:07:38;7.60;99.90
7684;DHT22;3884;48.616;12.872;2022-10-20T07:10:07;7.70;99.90
7684;DHT22;3884;48.616;12.872;2022-10-20T07:12:34;7.80;99.90
7684;DHT22;3884;48.616;12.872;2022-10-20T07:15:01;8.00;99.90
7684;DHT22;3884;48.616;12.872;2022-10-20T07:17:28;8.10;99.90
7684;DHT22;3884;48.616;12.872;2022-10-20T07:19:55;8.20;99.90
7684;DHT22;3884;48.616;12.872;2022-10-20T07:22:24;8.30;99.90
7684;DHT22;3884;48.616;12.872;2022-10-20T07:24:51;8.40;99.90
7684;DHT22;3884;48.616;12.872;2022-10-20T07:27:18;8.40;99.90
7684;DHT22;3884;48.616;12.872;2022-10-20T07:29:46;8.50;99.90
7684;DHT22;3884;48.616;12.872;2022-10-20T07:32:13;8.60;99.90
7684;DHT22;3884;48.616;12.872;2022-10-20T07:34:40;8.60;99.90
7684;DHT22;3884;48.616;12.872;2022-10-20T07:37:07;8.70;99.90
7684;DHT22;3884;48.616;12.872;2022-10-20T07:39:35;8.70;99.90
7684;DHT22;3884;48.616;12.872;2022-10-20T07:42:03;8.80;99.90
7684;DHT22;3884;48.616;12.872;2022-10-20T07:44:30;8.80;99.90
7684;DHT22;3884;48.616;12.872;2022-10-20T07:46:57;8.90;99.90
7684;DHT22;3884;48.616;12.872;2022-10-20T07:49:24;9.00;99.90
7684;DHT22;3884;48.616;12.872;2022-10-20T07:51:51;9.10;99.90
7684;DHT22;3884;48.616;12.872;2022-10-20T07:54:18;9.10;99.90
7684;DHT22;3884;48.616;12.872;2022-10-20T07:56:47;9.20;99.90
7684;DHT22;3884;48.616;12.872;2022-10-20T07:59:14;9.40;99.90
7684;DHT22;3884;48.616;12.872;2022-10-20T08:01:41;9.50;99.90
7684;DHT22;3884;48.616;12.872;2022-10-20T08:04:08;9.50;92.80
7684;DHT22;3884;48.616;12.872;2022-10-20T08:06:35;9.70;99.90
7684;DHT22;3884;48.616;12.872;2022-10-20T08:09:03;9.80;18.30
7684;DHT22;3884;48.616;12.872;2022-10-20T08:11:30;9.90;31.50
7684;DHT22;3884;48.616;12.872;2022-10-20T08:13:58;9.90;1.00
7684;DHT22;3884;48.616;12.872;2022-10-20T08:16:25;10.10;1.00
7684;DHT22;3884;48.616;12.872;2022-10-20T08:18:52;10.10;1.00
7684;DHT22;3884;48.616;12.872;2022-10-20T08:21:20;10.20;1.00
7684;DHT22;3884;48.616;12.872;2022-10-20T08:23:48;10.30;1.00
7684;DHT22;3884;48.616;12.872;2022-10-20T08:26:17;10.30;1.00
7684;DHT22;3884;48.616;12.872;2022-10-20T08:28:44;10.40;1.00
7684;DHT22;3884;48.616;12.872;2022-10-20T08:31:13;10.40;1.00
7684;DHT22;3884;48.616;12.872;2022-10-20T08:33:40;10.60;1.00
7684;DHT22;3884;48.616;12.872;2022-10-20T08:36:09;10.70;1.00
7684;DHT22;3884;48.616;12.872;2022-10-20T08:38:37;10.70;1.00
7684;DHT22;3884;48.616;12.872;2022-10-20T08:41:14;10.90;1.00
7684;DHT22;3884;48.616;12.872;2022-10-20T08:43:42;11.10;99.90
7684;DHT22;3884;48.616;12.872;2022-10-20T08:46:13;11.30;99.90
7684;DHT22;3884;48.616;12.872;2022-10-20T08:48:43;11.20;1.00
7684;DHT22;3884;48.616;12.872;2022-10-20T08:51:16;11.40;99.90
7684;DHT22;3884;48.616;12.872;2022-10-20T08:53:46;11.50;98.00
7684;DHT22;3884;48.616;12.872;2022-10-20T08:56:14;11.50;1.00
7684;DHT22;3884;48.616;12.872;2022-10-20T08:58:42;11.50;99.90
7684;DHT22;3884;48.616;12.872;2022-10-20T09:01:19;11.40;1.00
7684;DHT22;3884;48.616;12.872;2022-10-20T09:03:50;11.60;1.00
7684;DHT22;3884;48.616;12.872;2022-10-20T09:06:18;11.50;1.00
7684;DHT22;3884;48.616;12.872;2022-10-20T09:08:46;11.60;1.00
7684;DHT22;3884;48.616;12.872;2022-10-20T09:11:17;11.70;1.00
7684;DHT22;3884;48.616;12.872;2022-10-20T09:13:45;11.80;1.00
7684;DHT22;3884;48.616;12.872;2022-10-20T09:16:18;12.00;1.00
7684;DHT22;3884;48.616;12.872;2022-10-20T09:18:50;12.00;1.00
7684;DHT22;3884;48.616;12.872;2022-10-20T09:21:20;12.10;1.00
7684;DHT22;3884;48.616;12.872;2022-10-20T09:23:49;11.90;1.00
7684;DHT22;3884;48.616;12.872;2022-10-20T09:26:19;11.80;1.00
7684;DHT22;3884;48.616;12.872;2022-10-20T09:28:48;11.90;1.00
7684;DHT22;3884;48.616;12.872;2022-10-20T09:31:30;12.00;99.90
7684;DHT22;3884;48.616;12.872;2022-10-20T09:33:58;12.10;99.90
7684;DHT22;3884;48.616;12.872;2022-10-20T09:36:29;11.90;1.00
7684;DHT22;3884;48.616;12.872;2022-10-20T09:38:56;12.10;1.00
7684;DHT22;3884;48.616;12.872;2022-10-20T09:41:27;12.40;99.90
7684;DHT22;3884;48.616;12.872;2022-10-20T09:43:58;12.10;1.00
7684;DHT22;3884;48.616;12.872;2022-10-20T09:46:30;12.00;99.90
7684;DHT22;3884;48.616;12.872;2022-10-20T09:48:58;12.20;1.00
7684;DHT22;3884;48.616;12.872;2022-10-20T09:51:26;12.30;9.40
7684;DHT22;3884;48.616;12.872;2022-10-20T09:53:57;12.30;1.00
7684;DHT22;3884;48.616;12.872;2022-10-20T09:56:27;12.40;1.00
7684;DHT22;3884;48.616;12.872;2022-10-20T09:58:55;12.40;1.00
7684;DHT22;3884;48.616;12.872;2022-10-20T10:01:23;12.40;99.90
7684;DHT22;3884;48.616;12.872;2022-10-20T10:03:52;12.60;1.00
7684;DHT22;3884;48.616;12.872;2022-10-20T10:06:28;12.70;1.00
7684;DHT22;3884;48.616;12.872;2022-10-20T10:08:56;12.60;99.90
7684;DHT22;3884;48.616;12.872;2022-10-20T10:11:27;12.70;1.00
7684;DHT22;3884;48.616;12.872;2022-10-20T10:13:55;12.70;99.90
7684;DHT22;3884;48.616;12.872;2022-10-20T10:16:22;12.80;99.90
7684;DHT22;3884;48.616;12.872;2022-10-20T10:18:59;12.80;1.00
7684;DHT22;3884;48.616;12.872;2022-10-20T10:21:28;12.80;25.40
7684;DHT22;3884;48.616;12.872;2022-10-20T10:23:57;12.90;99.90
7684;DHT22;3884;48.616;12.872;2022-10-20T10:26:45;12.90;1.00
7684;DHT22;3884;48.616;12.872;2022-10-20T10:29:18;12.80;99.90
7684;DHT22;3884;48.616;12.872;2022-10-20T10:31:49;12.80;99.90
7684;DHT22;3884;48.616;12.872;2022-10-20T10:34:40;12.80;99.90
7684;DHT22;3884;48.616;12.872;2022-10-20T10:37:11;12.90;99.90
7684;DHT22;3884;48.616;12.872;2022-10-20T10:39:39;12.90;80.20
7684;DHT22;3884;48.616;12.872;2022-10-20T10:45:16;13.20;99.90
7684;DHT22;3884;48.616;12.872;2022-10-20T10:48:12;13.10;24.40
7684;DHT22;3884;48.616;12.872;2022-10-20T10:50:49;13.30;99.90
7684;DHT22;3884;48.616;12.872;2022-10-20T10:53:30;13.30;1.00
7684;DHT22;3884;48.616;12.872;2022-10-20T10:56:07;13.40;1.00
7684;DHT22;3884;48.616;12.872;2022-10-20T10:58:44;13.40;1.00
7684;DHT22;3884;48.616;12.872;2022-10-20T11:01:38;13.30;1.00
7684;DHT22;3884;48.616;12.872;2022-10-20T11:04:27;13.30;1.00
7684;DHT22;3884;48.616;12.872;2022-10-20T11:07:02;13.40;1.00
7684;DHT22;3884;48.616;12.872;2022-10-20T11:09:38;13.40;1.00
7684;DHT22;3884;48.616;12.872;2022-10-20T11:12:23;13.50;1.00
7684;DHT22;3884;48.616;12.872;2022-10-20T11:15:01;13.50;1.00
7684;DHT22;3884;48.616;12.872;2022-10-20T11:17:44;13.40;99.90
7684;DHT22;3884;48.616;12.872;2022-10-20T11:20:32;13.50;1.00
7684;DHT22;3884;48.616;12.872;2022-10-20T11:23:22;13.60;1.00
7684;DHT22;3884;48.616;12.872;2022-10-20T11:25:54;13.60;99.90
7684;DHT22;3884;48.616;12.872;2022-10-20T11:28:30;13.70;66.40
7684;DHT22;3884;48.616;12.872;2022-10-20T11:30:58;13.60;99.90
7684;DHT22;3884;48.616;12.872;2022-10-20T11:33:29;13.60;99.90
7684;DHT22;3884;48.616;12.872;2022-10-20T11:36:02;13.50;1.00
7684;DHT22;3884;48.616;12.872;2022-10-20T11:38:38;13.50;1.00
7684;DHT22;3884;48.616;12.872;2022-10-20T11:41:09;13.50;1.00
7684;DHT22;3884;48.616;12.872;2022-10-20T11:43:45;13.50;1.00
7684;DHT22;3884;48.616;12.872;2022-10-20T11:46:16;13.50;99.90
7684;DHT22;3884;48.616;12.872;2022-10-20T11:48:49;13.60;1.00
7684;DHT22;3884;48.616;12.872;2022-10-20T11:51:33;13.80;1.00
7684;DHT22;3884;48.616;12.872;2022-10-20T11:54:33;13.90;1.00
7684;DHT22;3884;48.616;12.872;2022-10-20T11:57:16;13.90;99.90
7684;DHT22;3884;48.616;12.872;2022-10-20T12:00:12;14.00;1.00
7684;DHT22;3884;48.616;12.872;2022-10-20T12:06:24;14.30;1.00
7684;DHT22;3884;48.616;12.872;2022-10-20T12:09:19;14.30;99.90
7684;DHT22;3884;48.616;12.872;2022-10-20T12:11:54;14.30;99.90
7684;DHT22;3884;48.616;12.872;2022-10-20T12:14:28;14.30;1.00
7684;DHT22;3884;48.616;12.872;2022-10-20T12:17:22;14.20;99.90
7684;DHT22;3884;48.616;12.872;2022-10-20T12:19:51;14.20;22.30
7684;DHT22;3884;48.616;12.872;2022-10-20T12:22:41;14.10;99.90
7684;DHT22;3884;48.616;12.872;2022-10-20T12:25:33;14.10;99.90
7684;DHT22;3884;48.616;12.872;2022-10-20T12:28:37;14.10;1.00
7684;DHT22;3884;48.616;12.872;2022-10-20T12:31:05;14.10;99.90
7684;DHT22;3884;48.616;12.872;2022-10-20T12:33:57;14.20;1.00
7684;DHT22;3884;48.616;12.872;2022-10-20T12:36:31;14.20;1.00
7684;DHT22;3884;48.616;12.872;2022-10-20T12:39:21;14.30;1.00
7684;DHT22;3884;48.616;12.872;2022-10-20T12:41:59;14.50;1.00
7684;DHT22;3884;48.616;12.872;2022-10-20T12:44:29;14.50;1.00
7684;DHT22;3884;48.616;12.872;2022-10-20T12:47:03;14.50;5.30
7684;DHT22;3884;48.616;12.872;2022-10-20T12:49:33;14.60;68.40
7684;DHT22;3884;48.616;12.872;2022-10-20T12:52:02;14.60;70.70
7684;DHT22;3884;48.616;12.872;2022-10-20T12:54:34;14.70;71.40
7684;DHT22;3884;48.616;12.872;2022-10-20T12:57:22;14.70;70.50
7684;DHT22;3884;48.616;12.872;2022-10-20T12:59:52;14.70;70.10
7684;DHT22;3884;48.616;12.872;2022-10-20T13:02:30;14.70;71.00
7684;DHT22;3884;48.616;12.872;2022-10-20T13:04:59;14.70;68.20
7684;DHT22;3884;48.616;12.872;2022-10-20T13:10:45;14.80;72.40
7684;DHT22;3884;48.616;12.872;2022-10-20T13:16:27;14.90;73.20
7684;DHT22;3884;48.616;12.872;2022-10-20T13:18:56;14.90;71.80
7684;DHT22;3884;48.616;12.872;2022-10-20T13:21:29;14.90;71.50
7684;DHT22;3884;48.616;12.872;2022-10-20T13:24:10;14.90;70.20
7684;DHT22;3884;48.616;12.872;2022-10-20T13:26:48;14.80;69.90
7684;DHT22;3884;48.616;12.872;2022-10-20T13:29:24;14.80;69.10
7684;DHT22;3884;48.616;12.872;2022-10-20T13:32:00;14.70;70.20
7684;DHT22;3884;48.616;12.872;2022-10-20T13:34:35;14.60;68.50
7684;DHT22;3884;48.616;12.872;2022-10-20T13:37:12;14.50;69.00
7684;DHT22;3884;48.616;12.872;2022-10-20T13:39:47;14.50;70.40
7684;DHT22;3884;48.616;12.872;2022-10-20T13:42:28;14.50;70.20
7684;DHT22;3884;48.616;12.872;2022-10-20T13:45:05;14.40;73.40
7684;DHT22;3884;48.616;12.872;2022-10-20T13:47:49;14.30;72.40
7684;DHT22;3884;48.616;12.872;2022-10-20T13:50:20;14.30;73.90
7684;DHT22;3884;48.616;12.872;2022-10-20T13:52:49;14.40;72.50
7684;DHT22;3884;48.616;12.872;2022-10-20T13:55:21;14.40;73.40
7684;DHT22;3884;48.616;12.872;2022-10-20T13:57:55;14.40;73.40
7684;DHT22;3884;48.616;12.872;2022-10-20T14:00:25;14.40;73.60
7684;DHT22;3884;48.616;12.872;2022-10-20T14:02:55;14.40;74.90
7684;DHT22;3884;48.616;12.872;2022-10-20T14:05:23;14.30;74.50
7684;DHT22;3884;48.616;12.872;2022-10-20T14:07:51;14.30;74.50
7684;DHT22;3884;48.616;12.872;2022-10-20T14:10:27;14.40;74.70
7684;DHT22;3884;48.616;12.872;2022-10-20T14:12:57;14.50;73.90
7684;DHT22;3884;48.616;12.872;2022-10-20T14:15:29;14.50;74.90
7684;DHT22;3884;48.616;12.872;2022-10-20T14:18:02;14.50;74.30
7684;DHT22;3884;48.616;12.872;2022-10-20T14:20:30;14.70;75.00
7684;DHT22;3884;48.616;12.872;2022-10-20T14:22:59;14.80;74.20
7684;DHT22;3884;48.616;12.872;2022-10-20T14:25:28;15.00;72.00
7684;DHT22;3884;48.616;12.872;2022-10-20T14:27:58;15.00;70.20
7684;DHT22;3884;48.616;12.872;2022-10-20T14:30:25;14.90;71.20
7684;DHT22;3884;48.616;12.872;2022-10-20T14:32:52;15.00;71.90
7684;DHT22;3884;48.616;12.872;2022-10-20T14:35:27;14.90;73.20
7684;DHT22;3884;48.616;12.872;2022-10-20T14:37:59;14.80;73.70
7684;DHT22;3884;48.616;12.872;2022-10-20T14:40:30;14.70;71.40
7684;DHT22;3884;48.616;12.872;2022-10-20T14:43:06;14.70;72.40
7684;DHT22;3884;48.616;12.872;2022-10-20T14:45:38;14.70;72.80
7684;DHT22;3884;48.616;12.872;2022-10-20T14:48:06;14.70;71.80
7684;DHT22;3884;48.616;12.872;2022-10-20T14:50:39;14.70;73.80
7684;DHT22;3884;48.616;12.872;2022-10-20T14:53:29;14.70;72.70
7684;DHT22;3884;48.616;12.872;2022-10-20T14:55:58;14.70;74.20
7684;DHT22;3884;48.616;12.872;2022-10-20T14:58:34;14.70;74.40
7684;DHT22;3884;48.616;12.872;2022-10-20T15:01:22;14.60;75.70
7684;DHT22;3884;48.616;12.872;2022-10-20T15:04:13;14.60;74.80
7684;DHT22;3884;48.616;12.872;2022-10-20T15:06:41;14.70;76.30
7684;DHT22;3884;48.616;12.872;2022-10-20T15:09:17;14.80;74.20
7684;DHT22;3884;48.616;12.872;2022-10-20T15:11:44;15.00;72.80
7684;DHT22;3884;48.616;12.872;2022-10-20T15:14:15;14.90;75.30
7684;DHT22;3884;48.616;12.872;2022-10-20T15:16:47;14.90;73.60
7684;DHT22;3884;48.616;12.872;2022-10-20T15:19:26;15.00;72.90
7684;DHT22;3884;48.616;12.872;2022-10-20T15:22:01;14.70;75.30
7684;DHT22;3884;48.616;12.872;2022-10-20T15:24:28;14.40;76.70
7684;DHT22;3884;48.616;12.872;2022-10-20T15:26:55;14.20;78.80
7684;DHT22;3884;48.616;12.872;2022-10-20T15:29:25;14.20;80.70
7684;DHT22;3884;48.616;12.872;2022-10-20T15:31:53;14.20;80.90
7684;DHT22;3884;48.616;12.872;2022-10-20T15:34:20;14.10;81.90
7684;DHT22;3884;48.616;12.872;2022-10-20T15:36:47;14.20;82.50
7684;DHT22;3884;48.616;12.872;2022-10-20T15:39:14;14.00;84.30
7684;DHT22;3884;48.616;12.872;2022-10-20T15:41:42;13.90;87.50
7684;DHT22;3884;48.616;12.872;2022-10-20T15:44:14;13.70;90.90
7684;DHT22;3884;48.616;12.872;2022-10-20T15:46:43;13.60;92.90
7684;DHT22;3884;48.616;12.872;2022-10-20T15:49:11;13.70;93.40
7684;DHT22;3884;48.616;12.872;2022-10-20T15:51:39;13.60;93.20
7684;DHT22;3884;48.616;12.872;2022-10-20T15:54:07;13.40;93.20
7684;DHT22;3884;48.616;12.872;2022-10-20T15:56:34;13.20;96.50
7684;DHT22;3884;48.616;12.872;2022-10-20T15:59:01;13.00;99.20
7684;DHT22;3884;48.616;12.872;2022-10-20T16:01:28;12.80;99.90
7684;DHT22;3884;48.616;12.872;2022-10-20T16:03:57;12.70;99.90
7684;DHT22;3884;48.616;12.872;2022-10-20T16:06:24;12.80;99.90
7684;DHT22;3884;48.616;12.872;2022-10-20T16:08:51;12.90;99.90
7684;DHT22;3884;48.616;12.872;2022-10-20T16:11:19;12.70;99.90
7684;DHT22;3884;48.616;12.872;2022-10-20T16:13:47;12.60;99.90
7684;DHT22;3884;48.616;12.872;2022-10-20T16:16:16;12.50;99.90
7684;DHT22;3884;48.616;12.872;2022-10-20T16:18:43;12.30;99.90
7684;DHT22;3884;48.616;12.872;2022-10-20T16:21:12;12.10;99.90
7684;DHT22;3884;48.616;12.872;2022-10-20T16:23:39;12.10;99.90
7684;DHT22;3884;48.616;12.872;2022-10-20T16:26:08;12.10;99.90
7684;DHT22;3884;48.616;12.872;2022-10-20T16:28:36;12.20;99.90
7684;DHT22;3884;48.616;12.872;2022-10-20T16:31:04;12.10;99.90
7684;DHT22;3884;48.616;12.872;2022-10-20T16:33:32;12.10;99.90
7684;DHT22;3884;48.616;12.872;2022-10-20T16:36:01;12.10;99.90